Time;durP1;ratioP1;P1;durP2;ratioP2;P2;SDS_P1;SDS_P2;PMS_P1;PMS_P2;Temp;Humidity;BMP_temperature;BMP_pressure;BME280_temperature;BME280_humidity;BME280_pressure;Samples;Min_cycle;Max_cycle;Signal;HPM_P1;HPM_P2
2022/05/16 00:02:01;;;;;;;7.35;3.17;;;13.50;99.90;;;;;;4824999;29;20107;-77
2022/05/16 00:04:27;;;;;;;6.30;3.13;;;13.40;99.90;;;;;;4825201;29;20046;-77
2022/05/16 00:06:52;;;;;;;5.38;2.67;;;13.40;99.90;;;;;;4823492;29;20391;-77
2022/05/16 00:09:18;;;;;;;5.05;2.67;;;13.40;99.90;;;;;;4824404;29;20107;-78
2022/05/16 00:11:44;;;;;;;4.00;2.67;;;13.40;99.90;;;;;;4823706;29;20404;-76
2022/05/16 00:14:11;;;;;;;7.13;2.83;;;13.30;99.90;;;;;;4822843;29;20059;-78
2022/05/16 00:16:37;;;;;;;5.75;2.97;;;13.30;99.90;;;;;;4823301;29;20054;-77
2022/05/16 00:19:04;;;;;;;3.55;2.50;;;13.30;99.90;;;;;;4824302;29;20114;-77
2022/05/16 00:21:30;;;;;;;5.65;2.70;;;13.50;99.90;;;;;;4824268;29;20089;-76
2022/05/16 00:23:56;;;;;;;4.90;2.40;;;13.30;99.90;;;;;;4824185;29;20050;-76
2022/05/16 00:26:22;;;;;;;3.97;2.08;;;13.30;99.90;;;;;;4824235;29;20110;-76
2022/05/16 00:28:47;;;;;;;4.75;2.20;;;13.30;99.90;;;;;;4824178;29;20054;-78
2022/05/16 00:31:13;;;;;;;5.78;2.40;;;13.20;99.90;;;;;;4824178;29;20548;-76
2022/05/16 00:33:41;;;;;;;5.22;2.05;;;13.30;99.90;;;;;;4824663;29;20054;-76
2022/05/16 00:36:06;;;;;;;4.65;2.00;;;13.30;99.90;;;;;;4824244;29;20054;-77
2022/05/16 00:38:32;;;;;;;4.43;1.98;;;13.20;99.90;;;;;;4824122;29;20056;-76
2022/05/16 00:41:00;;;;;;;2.65;1.88;;;13.20;99.90;;;;;;4824336;29;20050;-76
2022/05/16 00:43:57;;;;;;;3.63;1.90;;;13.20;99.90;;;;;;4822979;29;20058;-78
2022/05/16 00:46:29;;;;;;;4.78;2.05;;;13.20;99.90;;;;;;4824021;29;20050;-75
2022/05/16 00:48:56;;;;;;;3.58;1.70;;;13.20;99.90;;;;;;4824554;29;20070;-77
2022/05/16 00:51:34;;;;;;;4.32;1.75;;;13.30;99.90;;;;;;4823986;29;20488;-78
2022/05/16 00:54:20;;;;;;;3.08;1.33;;;13.30;99.90;;;;;;4823931;29;20460;-77
2022/05/16 00:56:50;;;;;;;2.92;1.65;;;13.30;99.90;;;;;;4824140;29;20088;-77
2022/05/16 00:59:17;;;;;;;3.50;1.30;;;13.20;99.90;;;;;;4826739;29;20089;-78
2022/05/16 01:07:21;;;;;;;1.50;1.20;;;13.20;99.90;;;;;;4831766;29;20058;-77
2022/05/16 01:09:46;;;;;;;2.20;1.23;;;13.20;99.90;;;;;;4828249;29;20087;-77
2022/05/16 01:12:13;;;;;;;4.95;1.40;;;13.20;99.90;;;;;;4826962;29;20396;-77
2022/05/16 01:14:43;;;;;;;5.43;1.48;;;13.20;99.90;;;;;;4826906;29;20054;-78
2022/05/16 01:17:09;;;;;;;4.68;1.30;;;13.20;99.90;;;;;;4826839;29;20053;-77
2022/05/16 01:19:35;;;;;;;3.80;1.40;;;13.10;99.90;;;;;;4826846;29;20504;-76
2022/05/16 01:22:10;;;;;;;3.35;1.30;;;13.10;99.90;;;;;;4825625;29;20062;-79
2022/05/16 01:24:36;;;;;;;2.25;1.10;;;13.10;99.90;;;;;;4826353;29;20414;-78
2022/05/16 01:27:02;;;;;;;2.22;1.05;;;13.10;99.90;;;;;;4826735;29;20137;-78
2022/05/16 01:29:28;;;;;;;2.15;1.00;;;13.10;99.90;;;;;;4826630;29;20133;-78
2022/05/16 01:31:54;;;;;;;2.80;1.10;;;13.10;99.90;;;;;;4826586;29;20141;-78
2022/05/16 01:34:19;;;;;;;1.73;1.20;;;13.10;99.90;;;;;;4826484;29;20050;-79
2022/05/16 01:36:45;;;;;;;3.22;1.10;;;13.10;99.90;;;;;;4826139;29;20046;-79
2022/05/16 01:39:11;;;;;;;2.67;1.00;;;13.00;99.90;;;;;;4825505;29;20164;-78
2022/05/16 01:41:36;;;;;;;2.90;0.90;;;13.00;99.90;;;;;;4810482;29;20065;-77
2022/05/16 01:44:02;;;;;;;3.35;0.98;;;13.00;99.90;;;;;;4826279;29;20047;-78
2022/05/16 01:46:34;;;;;;;3.72;1.20;;;13.00;99.90;;;;;;4825432;29;20050;-78
2022/05/16 01:49:00;;;;;;;1.45;1.00;;;13.00;99.90;;;;;;4827451;29;20145;-80
2022/05/16 01:51:26;;;;;;;3.28;1.00;;;13.10;99.90;;;;;;4826316;29;20051;-77
2022/05/16 01:53:52;;;;;;;1.77;0.85;;;13.00;99.90;;;;;;4825409;29;20160;-76
2022/05/16 01:56:18;;;;;;;2.03;1.27;;;13.00;99.90;;;;;;4826100;29;20051;-77
2022/05/16 01:58:44;;;;;;;1.88;1.05;;;12.90;99.90;;;;;;4825555;29;20069;-76
2022/05/16 02:01:11;;;;;;;2.58;0.80;;;12.90;99.90;;;;;;4825048;29;20075;-76
2022/05/16 02:03:43;;;;;;;4.00;0.90;;;12.90;99.90;;;;;;4826129;29;20051;-76
2022/05/16 02:06:09;;;;;;;2.03;1.00;;;12.90;99.90;;;;;;4826689;29;20387;-77
2022/05/16 02:08:35;;;;;;;2.30;0.95;;;12.90;99.90;;;;;;4825037;29;20055;-77
2022/05/16 02:11:02;;;;;;;2.60;0.88;;;12.90;99.90;;;;;;4809975;29;20494;-77
2022/05/16 02:13:28;;;;;;;2.05;0.85;;;12.80;99.90;;;;;;4824761;29;20043;-77
2022/05/16 02:15:53;;;;;;;3.00;1.08;;;12.80;99.90;;;;;;4794565;29;20102;-75
2022/05/16 02:18:19;;;;;;;2.08;0.93;;;12.80;99.90;;;;;;4825605;29;20488;-77
2022/05/16 02:20:45;;;;;;;1.83;0.90;;;12.80;99.90;;;;;;4825952;29;20053;-78
2022/05/16 02:25:57;;;;;;;1.98;0.90;;;12.70;99.90;;;;;;4826358;29;20061;-77
2022/05/16 02:28:23;;;;;;;2.28;0.80;;;12.80;99.90;;;;;;4826241;29;20050;-78
2022/05/16 02:30:49;;;;;;;2.30;1.10;;;12.80;99.90;;;;;;4825663;29;20050;-75
2022/05/16 02:33:17;;;;;;;2.42;1.17;;;12.80;99.90;;;;;;4824310;29;20101;-75
2022/05/16 02:35:44;;;;;;;2.33;0.98;;;12.70;99.90;;;;;;4825257;29;20514;-76
2022/05/16 02:38:12;;;;;;;2.08;0.90;;;12.70;99.90;;;;;;4825604;29;20526;-75
2022/05/16 02:40:37;;;;;;;3.90;0.93;;;12.60;99.90;;;;;;4825630;29;20054;-77
2022/05/16 02:43:04;;;;;;;2.72;0.80;;;12.70;99.90;;;;;;4825327;29;20458;-76
2022/05/16 02:45:31;;;;;;;2.97;0.90;;;12.70;99.90;;;;;;4825160;29;20495;-76
2022/05/16 02:47:57;;;;;;;1.30;0.88;;;12.70;99.90;;;;;;4825613;29;20066;-75
2022/05/16 02:50:24;;;;;;;2.28;0.90;;;12.60;99.90;;;;;;4826161;29;20457;-74
2022/05/16 02:52:53;;;;;;;4.15;0.98;;;12.60;99.90;;;;;;4825963;29;20062;-76
2022/05/16 02:55:20;;;;;;;3.38;0.98;;;12.60;99.90;;;;;;4825295;29;20415;-76
2022/05/16 02:57:45;;;;;;;2.75;0.80;;;12.60;99.90;;;;;;4825324;29;20153;-76
2022/05/16 03:00:13;;;;;;;3.47;1.10;;;12.60;99.90;;;;;;4825322;29;20090;-76
2022/05/16 03:02:39;;;;;;;3.10;1.05;;;12.60;99.90;;;;;;4825436;29;20058;-75
2022/05/16 03:05:06;;;;;;;2.17;0.80;;;12.70;99.90;;;;;;4825512;29;20096;-76
2022/05/16 03:07:32;;;;;;;2.38;1.00;;;12.50;99.90;;;;;;4825182;29;20102;-77
2022/05/16 03:09:58;;;;;;;3.85;1.10;;;12.50;99.90;;;;;;4824485;29;20046;-76
2022/05/16 03:12:24;;;;;;;3.53;1.10;;;12.60;99.90;;;;;;4809643;29;20522;-73
2022/05/16 03:14:50;;;;;;;3.25;1.00;;;12.50;99.90;;;;;;4824968;29;20058;-75
2022/05/16 03:17:15;;;;;;;3.03;0.90;;;12.50;99.90;;;;;;4824980;29;20050;-77
2022/05/16 03:19:42;;;;;;;2.70;0.70;;;12.50;99.90;;;;;;4824005;29;20502;-77
2022/05/16 03:22:08;;;;;;;2.67;0.95;;;12.50;99.90;;;;;;4825480;29;20069;-77
2022/05/16 03:24:34;;;;;;;3.28;1.00;;;12.50;99.90;;;;;;4825009;29;20046;-76
2022/05/16 03:27:00;;;;;;;3.63;1.08;;;12.40;99.90;;;;;;4808899;29;20073;-77
2022/05/16 03:29:26;;;;;;;1.45;0.70;;;12.40;99.90;;;;;;4824920;29;20133;-76
2022/05/16 03:31:54;;;;;;;2.28;0.90;;;12.40;99.90;;;;;;4824870;29;20056;-77
2022/05/16 03:34:20;;;;;;;2.08;0.82;;;12.40;99.90;;;;;;4824793;29;20145;-77
2022/05/16 03:36:45;;;;;;;1.75;0.90;;;12.40;99.90;;;;;;4824102;29;20129;-77
2022/05/16 03:41:56;;;;;;;2.83;1.00;;;12.40;99.90;;;;;;4824813;29;20103;-76
2022/05/16 03:44:23;;;;;;;2.67;0.90;;;12.40;99.90;;;;;;4824063;29;20399;-76
2022/05/16 03:46:49;;;;;;;3.17;1.02;;;12.40;99.90;;;;;;4823636;29;20058;-76
2022/05/16 03:49:14;;;;;;;4.18;1.05;;;12.40;99.90;;;;;;4825164;29;20131;-76
2022/05/16 03:51:41;;;;;;;3.42;0.80;;;12.40;99.90;;;;;;4824604;29;20407;-77
2022/05/16 03:54:07;;;;;;;2.55;0.90;;;12.40;99.90;;;;;;4825272;29;20114;-77
2022/05/16 03:56:33;;;;;;;2.35;0.80;;;12.30;99.90;;;;;;4825632;29;20451;-76
2022/05/16 03:58:59;;;;;;;2.67;0.90;;;12.40;99.90;;;;;;4823549;29;20055;-77
2022/05/16 04:01:26;;;;;;;2.97;1.00;;;12.40;99.90;;;;;;4809274;29;20159;-79
2022/05/16 04:03:51;;;;;;;2.17;0.80;;;12.50;99.90;;;;;;4824569;29;20060;-77
2022/05/16 04:06:18;;;;;;;3.60;1.02;;;12.30;99.90;;;;;;4823354;29;20043;-76
2022/05/16 04:08:44;;;;;;;2.45;0.90;;;12.40;99.90;;;;;;4824748;29;20460;-77
2022/05/16 04:11:12;;;;;;;3.42;0.70;;;12.40;99.90;;;;;;4824149;29;20496;-79
2022/05/16 04:13:38;;;;;;;3.28;0.90;;;12.40;99.90;;;;;;4823340;29;20498;-76
2022/05/16 04:16:04;;;;;;;1.67;0.80;;;12.30;99.90;;;;;;4823398;29;20054;-77
2022/05/16 04:18:32;;;;;;;2.83;0.80;;;12.40;99.90;;;;;;4823923;29;20416;-77
2022/05/16 04:20:58;;;;;;;2.03;0.90;;;12.30;99.90;;;;;;4824622;29;20453;-79
2022/05/16 04:23:24;;;;;;;4.10;0.90;;;12.40;99.90;;;;;;4824496;29;20106;-79
2022/05/16 04:25:49;;;;;;;2.90;0.93;;;12.40;99.90;;;;;;4824336;29;20046;-77
2022/05/16 04:28:15;;;;;;;4.00;0.90;;;12.40;99.90;;;;;;4823085;29;20110;-80
2022/05/16 04:30:41;;;;;;;1.40;0.80;;;12.40;99.90;;;;;;4823105;29;20050;-78
2022/05/16 04:33:07;;;;;;;3.65;1.05;;;12.50;99.90;;;;;;4826342;29;20050;-79
2022/05/16 04:35:34;;;;;;;1.10;0.90;;;12.50;99.90;;;;;;4827900;29;20043;-78
2022/05/16 04:37:59;;;;;;;1.80;0.80;;;12.50;99.90;;;;;;4827548;29;20058;-80
2022/05/16 04:40:26;;;;;;;2.80;0.95;;;12.50;99.90;;;;;;4827433;29;20103;-77
2022/05/16 04:42:52;;;;;;;2.35;0.98;;;12.50;99.90;;;;;;4826108;29;20059;-74
2022/05/16 04:45:22;;;;;;;3.17;0.93;;;12.60;99.90;;;;;;4827638;29;20103;-77
2022/05/16 04:47:51;;;;;;;3.47;0.98;;;12.60;99.90;;;;;;4826582;29;20192;-78
2022/05/16 04:50:21;;;;;;;2.65;1.00;;;12.60;99.90;;;;;;4827495;29;20085;-78
2022/05/16 04:52:47;;;;;;;2.33;0.90;;;12.60;99.90;;;;;;4827538;29;20046;-79
2022/05/16 04:55:14;;;;;;;3.38;1.00;;;12.60;99.90;;;;;;4827093;29;20133;-78
2022/05/16 04:57:40;;;;;;;1.65;0.80;;;12.70;99.90;;;;;;4827159;29;20123;-76
2022/05/16 05:00:07;;;;;;;3.08;0.80;;;12.70;99.90;;;;;;4827172;29;20130;-77
2022/05/16 05:02:33;;;;;;;3.05;0.95;;;12.70;99.90;;;;;;4826227;29;20054;-77
2022/05/16 05:05:03;;;;;;;2.45;1.17;;;12.80;99.90;;;;;;4827548;29;20369;-75
2022/05/16 05:07:29;;;;;;;5.15;1.10;;;12.80;99.90;;;;;;4827063;29;20047;-78
2022/05/16 05:15:23;;;;;;;2.33;1.13;;;12.90;99.90;;;;;;4826655;29;20066;-79
2022/05/16 05:17:49;;;;;;;3.95;1.10;;;12.90;99.90;;;;;;4827602;29;20061;-78
2022/05/16 05:20:15;;;;;;;3.40;1.13;;;13.00;99.90;;;;;;4826832;29;20502;-77
2022/05/16 05:22:46;;;;;;;13.73;1.88;;;13.00;99.90;;;;;;4827292;29;20061;-79
2022/05/16 05:25:15;;;;;;;3.55;1.08;;;13.00;99.90;;;;;;4826739;29;20054;-78
2022/05/16 05:27:43;;;;;;;1.48;0.90;;;13.00;99.90;;;;;;4826710;29;20062;-78
2022/05/16 05:30:11;;;;;;;4.07;1.10;;;13.10;99.90;;;;;;4826772;29;20050;-77
2022/05/16 05:32:37;;;;;;;3.33;1.10;;;13.10;99.90;;;;;;4826664;29;20093;-79
2022/05/16 05:35:05;;;;;;;2.42;1.02;;;13.10;99.90;;;;;;4826559;29;20453;-79
2022/05/16 05:37:32;;;;;;;3.67;1.55;;;13.20;99.90;;;;;;4826522;29;20046;-79
2022/05/16 05:40:00;;;;;;;3.30;1.20;;;13.20;99.90;;;;;;4826486;29;20054;-78
2022/05/16 05:42:30;;;;;;;4.38;1.00;;;13.20;99.90;;;;;;4825468;29;20406;-80
2022/05/16 05:44:55;;;;;;;5.30;1.20;;;13.20;99.90;;;;;;4826182;29;20043;-79
2022/05/16 05:47:21;;;;;;;2.65;1.00;;;13.30;99.90;;;;;;4824948;29;20074;-77
2022/05/16 05:49:48;;;;;;;3.10;1.10;;;13.30;99.90;;;;;;4826423;29;20058;-79
2022/05/16 05:52:17;;;;;;;5.03;1.10;;;13.40;99.90;;;;;;4826435;29;20109;-79
2022/05/16 05:54:43;;;;;;;3.08;1.20;;;13.40;99.90;;;;;;4826228;29;20043;-79
2022/05/16 05:57:10;;;;;;;3.92;1.08;;;13.50;99.90;;;;;;4826342;29;20133;-81
2022/05/16 05:59:36;;;;;;;1.95;0.90;;;13.50;99.90;;;;;;4825266;29;20054;-79
2022/05/16 06:02:02;;;;;;;2.78;1.00;;;13.50;99.90;;;;;;4825460;29;20107;-78
2022/05/16 06:04:28;;;;;;;3.45;1.20;;;13.60;99.90;;;;;;4826081;29;20504;-78
2022/05/16 06:06:53;;;;;;;3.20;1.00;;;13.60;99.90;;;;;;4826662;29;20062;-80
2022/05/16 06:09:19;;;;;;;3.50;1.65;;;13.70;99.90;;;;;;4826058;29;20498;-76
2022/05/16 06:11:46;;;;;;;5.78;1.25;;;13.70;99.90;;;;;;4826249;29;20503;-81
2022/05/16 06:14:12;;;;;;;2.95;1.20;;;13.80;99.90;;;;;;4826149;29;20092;-80
2022/05/16 06:16:37;;;;;;;3.15;1.25;;;13.80;99.90;;;;;;4825881;29;20146;-80
2022/05/16 06:19:03;;;;;;;5.65;1.52;;;13.90;99.90;;;;;;4826083;29;20081;-81
2022/05/16 06:21:28;;;;;;;3.47;1.05;;;13.90;99.90;;;;;;4825260;29;20144;-77
2022/05/16 06:23:54;;;;;;;2.88;1.20;;;14.00;99.90;;;;;;4827046;29;20054;-80
2022/05/16 06:26:20;;;;;;;1.92;1.08;;;14.10;99.90;;;;;;4827602;29;20050;-80
2022/05/16 06:28:45;;;;;;;2.25;1.00;;;14.10;99.90;;;;;;4826684;29;20452;-79
2022/05/16 06:31:11;;;;;;;5.25;1.35;;;14.10;99.90;;;;;;4826785;29;20123;-80
2022/05/16 06:33:37;;;;;;;1.60;0.80;;;14.20;99.90;;;;;;4826489;29;20050;-81
2022/05/16 06:36:05;;;;;;;4.90;1.40;;;14.30;99.90;;;;;;4824441;29;20399;-79
2022/05/16 06:38:34;;;;;;;2.28;1.10;;;14.40;99.90;;;;;;4825606;29;20118;-82
2022/05/16 06:41:00;;;;;;;4.32;1.30;;;14.50;99.90;;;;;;4825490;29;20050;-81
2022/05/16 06:43:28;;;;;;;3.13;1.17;;;14.60;99.90;;;;;;4825545;29;20508;-80
2022/05/16 06:45:54;;;;;;;2.65;1.20;;;14.60;99.90;;;;;;4825302;29;20125;-80
2022/05/16 06:48:20;;;;;;;2.28;1.27;;;14.60;99.90;;;;;;4825873;29;20153;-81
2022/05/16 06:50:48;;;;;;;3.42;1.63;;;14.70;99.90;;;;;;4825160;29;20582;-81
2022/05/16 06:53:33;;;;;;;5.88;1.55;;;14.70;99.90;;;;;;4824248;29;20054;-82
2022/05/16 06:56:00;;;;;;;3.88;1.58;;;14.70;99.90;;;;;;4823642;29;20050;-80
2022/05/16 06:58:26;;;;;;;2.17;1.40;;;14.70;99.90;;;;;;4825369;29;20057;-81
2022/05/16 07:00:53;;;;;;;3.65;1.05;;;14.70;99.90;;;;;;4824747;29;20058;-80
2022/05/16 07:03:18;;;;;;;4.15;1.25;;;14.80;99.90;;;;;;4825605;29;20589;-80
2022/05/16 07:05:46;;;;;;;2.45;1.20;;;14.80;99.90;;;;;;4825487;29;20051;-82
2022/05/16 07:08:12;;;;;;;2.80;1.08;;;14.90;99.90;;;;;;4824103;29;20046;-82
2022/05/16 07:10:37;;;;;;;5.47;1.27;;;14.90;99.90;;;;;;4825110;29;20057;-82
2022/05/16 07:13:03;;;;;;;4.50;1.20;;;15.00;99.90;;;;;;4825226;29;20042;-84
2022/05/16 07:15:29;;;;;;;4.15;1.40;;;15.00;99.90;;;;;;4824747;29;20364;-77
2022/05/16 07:17:55;;;;;;;4.75;1.35;;;15.10;99.90;;;;;;4825043;29;20046;-81
2022/05/16 07:20:21;;;;;;;3.97;1.25;;;15.20;99.90;;;;;;4808943;29;20046;-81
2022/05/16 07:22:50;;;;;;;2.58;1.65;;;15.30;99.90;;;;;;4809026;29;20057;-82
2022/05/16 07:25:19;;;;;;;3.70;1.00;;;15.40;99.90;;;;;;4825160;29;20042;-77
2022/05/16 07:27:56;;;;;;;3.88;1.50;;;15.50;99.90;;;;;;4825133;29;20438;-81
2022/05/16 07:30:30;;;;;;;3.95;1.27;;;15.50;99.90;;;;;;4824309;29;20057;-80
2022/05/16 07:32:57;;;;;;;4.38;1.00;;;15.60;99.90;;;;;;4825090;29;20488;-77
2022/05/16 07:35:30;;;;;;;4.38;1.30;;;15.80;99.90;;;;;;4823778;29;20099;-80
2022/05/16 07:37:56;;;;;;;5.45;1.30;;;15.80;99.90;;;;;;4825006;29;20089;-78
2022/05/16 07:40:25;;;;;;;7.30;1.83;;;15.90;99.90;;;;;;4824900;29;20137;-77
2022/05/16 07:42:52;;;;;;;5.72;1.30;;;16.10;99.90;;;;;;4824933;29;20531;-77
2022/05/16 07:45:18;;;;;;;3.95;1.25;;;16.20;99.90;;;;;;4825319;29;20121;-76
2022/05/16 07:47:44;;;;;;;6.78;1.30;;;16.30;99.90;;;;;;4823367;29;20073;-76
2022/05/16 07:50:11;;;;;;;5.82;1.25;;;16.40;99.90;;;;;;4825581;29;20066;-78
2022/05/16 07:52:37;;;;;;;3.72;1.20;;;16.50;99.90;;;;;;4824832;29;20081;-76
2022/05/16 07:55:05;;;;;;;3.60;1.20;;;16.60;99.90;;;;;;4823678;29;20096;-78
2022/05/16 07:57:30;;;;;;;8.80;1.40;;;16.30;99.90;;;;;;4824375;29;20526;-81
2022/05/16 07:59:57;;;;;;;5.43;1.15;;;16.70;99.90;;;;;;4824717;29;20050;-80
2022/05/16 08:02:23;;;;;;;4.38;1.33;;;16.90;99.90;;;;;;4824778;29;20062;-76
2022/05/16 08:04:48;;;;;;;2.75;1.20;;;17.00;99.90;;;;;;4823483;29;20043;-84
2022/05/16 08:07:14;;;;;;;3.80;1.00;;;17.10;99.90;;;;;;4826981;29;20050;-82
2022/05/16 08:12:33;;;;;;;3.38;1.40;;;17.30;99.90;;;;;;4828653;29;20110;-84
2022/05/16 08:15:00;;;;;;;6.68;1.27;;;17.40;99.90;;;;;;4827846;29;20046;-82
2022/05/16 08:17:27;;;;;;;4.53;1.27;;;17.50;99.90;;;;;;4828029;29;20467;-81
2022/05/16 08:19:53;;;;;;;5.25;1.75;;;17.60;99.90;;;;;;4826706;29;20065;-81
2022/05/16 08:22:18;;;;;;;3.72;1.10;;;17.70;99.90;;;;;;4827961;29;20050;-80
2022/05/16 08:24:45;;;;;;;4.43;1.10;;;17.80;99.90;;;;;;4828402;29;20054;-80
2022/05/16 08:27:11;;;;;;;3.97;1.25;;;17.90;99.90;;;;;;4811352;29;20526;-80
2022/05/16 08:29:37;;;;;;;5.57;1.75;;;18.00;99.90;;;;;;4826535;29;20137;-81
2022/05/16 08:32:04;;;;;;;4.13;1.27;;;18.00;99.90;;;;;;4827717;29;20062;-82
2022/05/16 08:34:30;;;;;;;5.63;1.30;;;18.10;99.90;;;;;;4827522;29;20060;-81
2022/05/16 08:39:55;;;;;;;6.13;1.58;;;18.30;99.90;;;;;;4826419;29;20050;-81
2022/05/16 08:42:28;;;;;;;2.30;1.20;;;18.40;99.90;;;;;;4812405;29;20085;-80
2022/05/16 08:44:57;;;;;;;2.90;1.20;;;18.50;99.90;;;;;;4827363;29;20050;-77
2022/05/16 08:47:47;;;;;;;4.68;1.35;;;18.60;99.90;;;;;;4827676;29;20407;-81
2022/05/16 08:50:25;;;;;;;4.43;1.35;;;18.60;99.90;;;;;;4826532;29;20054;-77
2022/05/16 08:52:59;;;;;;;6.10;1.30;;;18.80;99.90;;;;;;4827456;29;20061;-80
2022/05/16 08:55:37;;;;;;;3.17;1.40;;;18.90;99.90;;;;;;4826443;29;20042;-81
2022/05/16 08:58:17;;;;;;;4.45;1.10;;;19.00;99.90;;;;;;4828153;29;20428;-80
2022/05/16 09:00:53;;;;;;;7.88;1.60;;;19.10;99.90;;;;;;4828030;29;20380;-82
2022/05/16 09:03:27;;;;;;;4.00;1.40;;;19.20;99.90;;;;;;4827063;29;20062;-83
2022/05/16 09:05:57;;;;;;;3.90;1.45;;;19.30;99.90;;;;;;4827847;29;20054;-85
2022/05/16 09:08:35;;;;;;;5.68;1.42;;;19.40;99.90;;;;;;4827680;29;20054;-83
2022/05/16 09:11:12;;;;;;;5.30;1.75;;;19.60;99.90;;;;;;4826902;29;20119;-85
2022/05/16 09:13:52;;;;;;;4.43;1.20;;;19.70;99.90;;;;;;4827878;29;20482;-83
2022/05/16 09:16:37;;;;;;;5.53;1.77;;;19.80;99.90;;;;;;4825804;29;20395;-83
2022/05/16 09:19:14;;;;;;;8.60;1.83;;;19.90;99.90;;;;;;4826383;29;20103;-83
2022/05/16 09:21:47;;;;;;;4.28;1.30;;;20.00;99.90;;;;;;4827039;29;20050;-82
2022/05/16 09:24:22;;;;;;;3.03;1.27;;;20.20;99.90;;;;;;4826981;29;20367;-74
2022/05/16 09:27:06;;;;;;;5.30;1.20;;;20.30;99.90;;;;;;4826075;29;20054;-79
2022/05/16 09:29:37;;;;;;;2.83;1.20;;;20.40;99.90;;;;;;4824972;29;20046;-78
2022/05/16 09:32:09;;;;;;;4.30;1.42;;;20.50;99.90;;;;;;4825655;29;20068;-78
2022/05/16 09:34:35;;;;;;;6.03;1.30;;;20.60;99.90;;;;;;4825716;29;20053;-76
2022/05/16 09:37:01;;;;;;;5.07;1.40;;;20.70;99.70;;;;;;4825653;29;20046;-77
2022/05/16 09:39:32;;;;;;;3.40;1.05;;;20.70;99.30;;;;;;4825676;29;20069;-76
2022/05/16 09:42:05;;;;;;;5.47;1.33;;;20.80;99.40;;;;;;4826369;29;20110;-75
2022/05/16 09:45:06;;;;;;;5.22;1.42;;;20.90;99.40;;;;;;4825665;29;20130;-74
2022/05/16 09:47:32;;;;;;;3.20;1.13;;;21.00;98.60;;;;;;4824770;29;20065;-73
2022/05/16 09:50:16;;;;;;;4.85;1.40;;;21.10;98.80;;;;;;4825865;29;20085;-76
2022/05/16 09:52:51;;;;;;;4.35;1.13;;;21.20;98.90;;;;;;4826541;29;20090;-74
2022/05/16 09:55:33;;;;;;;5.47;1.40;;;21.30;98.40;;;;;;4824806;29;20480;-75
2022/05/16 09:58:12;;;;;;;4.10;1.20;;;21.40;98.50;;;;;;4824683;29;20148;-76
2022/05/16 10:00:43;;;;;;;8.40;1.90;;;21.50;98.00;;;;;;4825629;29;20053;-74
2022/05/16 10:03:30;;;;;;;5.80;1.23;;;21.70;98.00;;;;;;4825372;29;20563;-75
2022/05/16 10:05:59;;;;;;;8.20;1.63;;;21.90;97.70;;;;;;4826343;29;20050;-74
2022/05/16 10:08:32;;;;;;;6.20;1.40;;;21.90;96.70;;;;;;4825362;29;20114;-76
2022/05/16 10:11:04;;;;;;;4.50;1.33;;;21.90;96.50;;;;;;4825528;29;20484;-78
2022/05/16 10:13:32;;;;;;;7.03;1.73;;;21.90;96.20;;;;;;4825756;29;20061;-76
2022/05/16 10:16:00;;;;;;;5.43;1.33;;;21.90;95.80;;;;;;4825517;29;20114;-76
2022/05/16 10:18:28;;;;;;;3.42;1.20;;;21.80;96.00;;;;;;4826144;29;20077;-75
2022/05/16 10:20:59;;;;;;;6.40;1.85;;;21.80;96.00;;;;;;4825540;29;20106;-78
2022/05/16 10:23:30;;;;;;;4.20;1.33;;;21.80;95.20;;;;;;4825523;29;20050;-75
2022/05/16 10:26:00;;;;;;;3.40;1.13;;;21.80;95.60;;;;;;4824934;29;20062;-75
2022/05/16 10:28:37;;;;;;;4.03;1.58;;;21.70;95.40;;;;;;4825358;29;20046;-76
2022/05/16 10:33:55;;;;;;;3.00;1.05;;;21.70;94.80;;;;;;4824543;29;20128;-77
2022/05/16 10:36:30;;;;;;;4.55;1.63;;;21.80;94.50;;;;;;4825462;29;20050;-79
2022/05/16 10:39:20;;;;;;;3.53;1.20;;;21.80;94.60;;;;;;4824979;29;20050;-73
2022/05/16 10:41:53;;;;;;;4.07;1.20;;;21.90;94.60;;;;;;4824082;29;20105;-74
2022/05/16 10:44:29;;;;;;;3.55;1.10;;;22.10;93.70;;;;;;4825370;29;20054;-76
2022/05/16 10:47:26;;;;;;;5.60;1.35;;;22.20;93.40;;;;;;4825249;29;20109;-76
2022/05/16 10:49:57;;;;;;;5.38;1.63;;;22.30;93.10;;;;;;4825572;29;20368;-78
2022/05/16 10:52:56;;;;;;;3.15;1.42;;;22.40;92.20;;;;;;5065436;27;20382;-75
2022/05/16 10:55:23;;;;;;;4.80;1.48;;;22.50;91.70;;;;;;5063780;28;20407;-74
2022/05/16 10:58:24;;;;;;;6.05;1.45;;;22.60;91.50;;;;;;5062554;28;20056;-77
2022/05/16 11:00:53;;;;;;;3.05;1.40;;;22.80;90.60;;;;;;5055451;28;20037;-76
2022/05/16 11:03:35;;;;;;;4.38;1.30;;;22.90;90.50;;;;;;5065042;28;20047;-74
2022/05/16 11:06:23;;;;;;;5.17;1.70;;;23.00;90.30;;;;;;5060641;28;20044;-75
2022/05/16 11:09:25;;;;;;;5.80;1.48;;;23.00;88.40;;;;;;5063500;28;20049;-74
2022/05/16 11:12:11;;;;;;;5.43;1.38;;;23.20;87.80;;;;;;5057497;28;20040;-71
2022/05/16 11:14:54;;;;;;;5.75;1.60;;;23.30;87.10;;;;;;5060386;28;20527;-74
2022/05/16 11:17:25;;;;;;;6.18;1.73;;;23.40;88.50;;;;;;5063304;28;20055;-77
2022/05/16 11:20:26;;;;;;;5.10;1.50;;;23.40;85.50;;;;;;5062488;28;20040;-74
2022/05/16 11:23:24;;;;;;;5.18;1.33;;;23.50;85.50;;;;;;5062924;28;20048;-77
2022/05/16 11:26:16;;;;;;;4.07;1.45;;;23.60;85.70;;;;;;5060368;28;20079;-73
2022/05/16 11:29:31;;;;;;;5.18;1.15;;;23.70;84.90;;;;;;5063753;28;20091;-75
2022/05/16 11:32:11;;;;;;;2.95;1.33;;;23.70;84.30;;;;;;5060050;28;20056;-76
2022/05/16 11:35:02;;;;;;;3.90;1.40;;;23.70;82.50;;;;;;5061186;28;20045;-72
2022/05/16 11:38:03;;;;;;;3.63;1.38;;;23.70;82.80;;;;;;5063278;28;20140;-73
2022/05/16 11:40:41;;;;;;;4.80;1.42;;;23.70;82.50;;;;;;5062007;28;20527;-73
2022/05/16 11:43:32;;;;;;;4.75;1.20;;;23.70;82.90;;;;;;5064131;28;20049;-73
2022/05/16 11:46:07;;;;;;;4.82;1.23;;;23.70;84.80;;;;;;5055596;28;20355;-73
2022/05/16 11:49:07;;;;;;;5.68;1.30;;;23.70;83.70;;;;;;5062355;28;20053;-73
2022/05/16 11:52:08;;;;;;;5.82;1.33;;;23.70;82.60;;;;;;5061045;28;20063;-74
2022/05/16 11:54:39;;;;;;;2.22;1.25;;;23.60;82.20;;;;;;5022538;28;20060;-73
2022/05/16 12:03:08;;;;;;;6.28;1.42;;;23.60;80.80;;;;;;5055623;28;20063;-73
2022/05/16 12:05:43;;;;;;;4.88;1.40;;;23.50;81.90;;;;;;5047316;28;20119;-78
2022/05/16 12:08:33;;;;;;;5.22;1.20;;;23.50;81.00;;;;;;5046298;28;20073;-72
2022/05/16 12:11:02;;;;;;;3.15;1.20;;;23.50;81.10;;;;;;5049080;28;20049;-72
2022/05/16 12:13:32;;;;;;;6.20;1.48;;;23.40;80.30;;;;;;5048928;28;20266;-73
2022/05/16 12:16:15;;;;;;;4.25;1.20;;;23.30;81.00;;;;;;5049014;28;20064;-73
2022/05/16 12:18:45;;;;;;;3.15;1.40;;;23.20;83.50;;;;;;5048763;28;20060;-72
2022/05/16 12:21:20;;;;;;;4.53;1.60;;;23.10;87.10;;;;;;5048758;28;20037;-74
2022/05/16 12:23:49;;;;;;;4.68;1.60;;;23.00;87.70;;;;;;5049458;28;20044;-74
2022/05/16 12:26:26;;;;;;;3.65;1.50;;;22.80;88.10;;;;;;5047226;28;20721;-74
2022/05/16 12:29:08;;;;;;;4.55;1.80;;;22.70;89.70;;;;;;5048581;28;20060;-75
2022/05/16 12:31:50;;;;;;;3.70;1.30;;;22.60;90.20;;;;;;5047604;28;20091;-75
2022/05/16 12:34:31;;;;;;;5.15;1.52;;;22.50;90.80;;;;;;5042711;28;20041;-74
2022/05/16 12:37:00;;;;;;;3.70;1.48;;;22.50;91.00;;;;;;5041917;28;20060;-74
2022/05/16 12:39:49;;;;;;;6.57;1.50;;;22.40;91.10;;;;;;5050205;28;20119;-73
2022/05/16 12:42:41;;;;;;;5.30;1.83;;;22.40;92.10;;;;;;5046299;28;20060;-73
2022/05/16 12:45:42;;;;;;;5.40;1.73;;;22.40;92.70;;;;;;5043848;28;20037;-74
2022/05/16 12:48:33;;;;;;;4.60;1.42;;;22.30;93.60;;;;;;5049525;28;20048;-74
2022/05/16 12:50:58;;;;;;;3.70;1.70;;;22.30;94.70;;;;;;5048443;28;20060;-72
2022/05/16 12:53:43;;;;;;;2.60;1.55;;;22.30;95.50;;;;;;5048476;28;20068;-74
2022/05/16 12:56:48;;;;;;;4.38;2.25;;;22.20;96.20;;;;;;5046979;28;20041;-75
2022/05/16 12:59:33;;;;;;;4.55;1.63;;;22.20;96.60;;;;;;5044775;28;20079;-73
2022/05/16 13:02:05;;;;;;;3.50;1.70;;;22.20;96.80;;;;;;5043673;28;20071;-74
2022/05/16 13:04:49;;;;;;;3.35;1.90;;;22.20;96.80;;;;;;5049739;28;20041;-73
2022/05/16 13:07:32;;;;;;;5.25;2.40;;;22.20;97.50;;;;;;5043779;28;20053;-72
2022/05/16 13:10:07;;;;;;;6.68;2.42;;;22.20;98.80;;;;;;5045454;28;20432;-74
2022/05/16 13:12:55;;;;;;;8.18;3.13;;;22.30;99.80;;;;;;5046117;28;20040;-74
2022/05/16 13:15:34;;;;;;;5.20;3.08;;;22.30;99.90;;;;;;5045969;28;20076;-74
2022/05/16 13:18:01;;;;;;;5.65;3.05;;;22.50;99.90;;;;;;5046750;28;20052;-74
2022/05/16 13:20:42;;;;;;;4.93;2.45;;;22.60;99.10;;;;;;5047197;28;20045;-74
2022/05/16 13:23:08;;;;;;;5.03;2.42;;;22.70;97.30;;;;;;5045125;28;20115;-75
2022/05/16 13:29:21;;;;;;;3.88;2.47;;;22.80;97.50;;;;;;5046014;28;20112;-74
2022/05/16 13:31:06;;;;;;;6.50;2.33;;;22.90;97.00;;;;;;5046030;28;20202;-76
2022/05/16 13:33:37;;;;;;;7.53;2.38;;;23.00;97.70;;;;;;5044975;28;20060;-74
2022/05/16 13:36:21;;;;;;;8.15;2.75;;;23.00;96.90;;;;;;5046102;28;20131;-77
2022/05/16 13:38:59;;;;;;;4.28;2.10;;;23.00;95.40;;;;;;5046196;28;20457;-74
2022/05/16 13:41:29;;;;;;;4.50;2.60;;;23.00;96.40;;;;;;5045711;28;20044;-76
2022/05/16 13:43:58;;;;;;;5.53;2.90;;;23.00;96.10;;;;;;5051327;28;20071;-75